createdAt,value
2018-11-20T00:02:00.155Z,34.37
2018-11-20T00:04:54.634Z,38.40
2018-11-20T00:07:42.721Z,35.77
2018-11-20T00:10:37.900Z,39.30
2018-11-20T00:13:19.383Z,39.93
2018-11-20T00:16:06.841Z,34.60
2018-11-20T00:21:49.488Z,39.33
2018-11-20T00:24:40.478Z,34.83
2018-11-20T00:27:40.788Z,38.70
2018-11-20T00:30:44.272Z,40.87
2018-11-20T00:33:22.116Z,38.13
2018-11-20T00:36:09.785Z,38.80
2018-11-20T00:39:01.176Z,35.03
2018-11-20T00:41:36.597Z,35.17
2018-11-20T00:44:42.958Z,34.90
2018-11-20T00:47:26.490Z,40.20
2018-11-20T00:50:24.121Z,37.20
2018-11-20T00:53:24.609Z,37.03
2018-11-20T00:56:50.559Z,36.27
2018-11-20T00:59:37.750Z,35.50
2018-11-20T01:02:29.168Z,42.07
2018-11-20T01:05:20.541Z,40.93
2018-11-20T01:08:08.672Z,35.63
2018-11-20T01:10:55.483Z,36.73
2018-11-20T01:13:42.538Z,38.33
2018-11-20T01:16:26.767Z,37.20
2018-11-20T01:19:29.971Z,36.43
2018-11-20T01:22:16.814Z,32.73
2018-11-20T01:25:13.884Z,38.40
2018-11-20T01:27:55.375Z,37.03
2018-11-20T01:30:55.911Z,36.67
2018-11-20T01:33:42.834Z,37.37
2018-11-20T01:36:37.247Z,33.80
2018-11-20T01:39:30.715Z,39.17
2018-11-20T01:42:17.782Z,37.47
2018-11-20T01:45:04.721Z,33.60
2018-11-20T01:47:46.133Z,33.90
2018-11-20T01:50:33.284Z,33.87
2018-11-20T01:53:36.758Z,37.43
2018-11-20T01:56:30.913Z,38.43
2018-11-20T01:59:18.928Z,38.33
2018-11-20T02:02:05.644Z,37.47
2018-11-20T02:04:52.252Z,35.27
2018-11-20T02:07:40.660Z,33.00
2018-11-20T02:10:20.241Z,31.47
2018-11-20T02:14:00.581Z,36.77
2018-11-20T02:16:56.946Z,36.23
2018-11-20T02:19:45.488Z,32.80
2018-11-20T02:22:28.371Z,33.43
2018-11-20T02:25:14.829Z,32.50
2018-11-20T02:28:05.855Z,31.57
2018-11-20T02:30:52.486Z,34.30
2018-11-20T02:33:58.893Z,40.10
2018-11-20T02:36:47.590Z,31.23
2018-11-20T02:39:42.080Z,35.67
2018-11-20T02:42:33.524Z,35.83
2018-11-20T02:45:20.737Z,37.50
2018-11-20T02:48:09.239Z,36.13
2018-11-20T02:50:57.618Z,32.57
2018-11-20T02:53:57.653Z,31.73
2018-11-20T02:56:44.636Z,36.47
2018-11-20T02:59:31.712Z,34.70
2018-11-20T03:02:25.701Z,33.30
2018-11-20T03:05:07.683Z,31.73
2018-11-20T03:07:54.483Z,36.07
2018-11-20T03:10:43.698Z,32.60
2018-11-20T03:13:32.139Z,32.87
2018-11-20T03:16:19.507Z,34.03
2018-11-20T03:19:17.006Z,33.77
2018-11-20T03:22:11.450Z,32.50
2018-11-20T03:24:54.154Z,30.27
2018-11-20T03:27:40.933Z,30.60
2018-11-20T03:31:13.301Z,32.87
2018-11-20T03:33:57.868Z,35.27
2018-11-20T03:36:48.931Z,35.17
2018-11-20T03:39:35.486Z,32.23
2018-11-20T03:42:23.883Z,31.70
2018-11-20T03:45:21.287Z,32.83
2018-11-20T03:48:08.026Z,34.63
2018-11-20T03:51:02.611Z,30.60
2018-11-20T03:54:02.740Z,29.33
2018-11-20T03:56:59.966Z,30.30
2018-11-20T03:59:48.247Z,29.50
2018-11-20T04:02:36.218Z,29.33
2018-11-20T04:05:23.452Z,27.53
2018-11-20T04:08:23.811Z,29.10
2018-11-20T04:11:21.060Z,30.03
2018-11-20T04:14:18.562Z,32.50
2018-11-20T04:17:05.268Z,31.73
2018-11-20T04:19:59.620Z,27.10
2018-11-20T04:22:40.012Z,27.90
2018-11-20T04:25:29.602Z,26.20
2018-11-20T04:28:16.225Z,29.03
2018-11-20T04:31:39.436Z,28.03
2018-11-20T04:34:33.721Z,25.47
2018-11-20T04:37:37.983Z,26.13
2018-11-20T04:40:22.965Z,28.27
2018-11-20T04:43:11.425Z,24.77
2018-11-20T04:46:14.910Z,28.10
2018-11-20T04:49:02.057Z,30.33
2018-11-20T04:51:48.750Z,27.47
2018-11-20T04:54:42.804Z,22.47
2018-11-20T04:57:43.170Z,25.23
2018-11-20T05:00:49.332Z,27.00
2018-11-20T05:03:36.225Z,26.80
2018-11-20T05:06:23.682Z,23.40
2018-11-20T05:09:21.012Z,25.10
2018-11-20T05:12:07.946Z,23.63
2018-11-20T05:14:54.715Z,27.57
2018-11-20T05:17:32.484Z,24.07
2018-11-20T05:20:23.732Z,25.97
2018-11-20T05:23:10.303Z,23.43
2018-11-20T05:26:04.789Z,22.53
2018-11-20T05:29:05.116Z,25.53
2018-11-20T05:31:50.647Z,23.90
2018-11-20T05:34:37.521Z,23.67
2018-11-20T05:37:24.814Z,23.73
2018-11-20T05:40:11.279Z,23.83
2018-11-20T05:42:58.157Z,22.77
2018-11-20T05:45:44.717Z,25.13
2018-11-20T05:48:35.694Z,24.63
2018-11-20T05:51:33.196Z,23.10
2018-11-20T05:54:27.392Z,22.97
2018-11-20T05:57:14.329Z,21.43
2018-11-20T06:00:01.453Z,21.97
2018-11-20T06:02:49.250Z,23.43
2018-11-20T06:05:46.800Z,21.77
2018-11-20T06:08:35.131Z,23.77
2018-11-20T06:11:22.142Z,22.63
2018-11-20T06:14:13.537Z,22.00
2018-11-20T06:17:00.268Z,27.10
2018-11-20T06:19:47.287Z,23.53
2018-11-20T06:22:34.060Z,22.27
2018-11-20T06:25:23.387Z,21.47
2018-11-20T06:28:10.364Z,23.57
2018-11-20T06:31:02.148Z,21.63
2018-11-20T06:33:41.195Z,19.93
2018-11-20T06:36:32.083Z,24.57
2018-11-20T06:39:26.637Z,23.27
2018-11-20T06:42:13.386Z,22.27
2018-11-20T06:45:10.412Z,19.63
2018-11-20T06:48:10.483Z,20.83
2018-11-20T06:50:58.978Z,20.07
2018-11-20T06:53:37.023Z,22.13
2018-11-20T06:56:28.366Z,19.60
2018-11-20T06:59:15.280Z,22.00
2018-11-20T07:02:02.116Z,22.60
2018-11-20T07:05:02.380Z,18.57
2018-11-20T07:08:09.288Z,19.27
2018-11-20T07:11:06.329Z,17.17
2018-11-20T07:14:09.848Z,20.63
2018-11-20T07:16:58.358Z,21.00
2018-11-20T07:19:52.240Z,35.30
2018-11-20T07:22:44.852Z,20.10
2018-11-20T07:25:31.515Z,19.03
2018-11-20T07:28:25.416Z,18.20
2018-11-20T07:31:24.140Z,19.97
2018-11-20T07:34:06.524Z,18.70
2018-11-20T07:37:10.296Z,18.07
2018-11-20T07:39:55.828Z,19.73
2018-11-20T07:42:47.516Z,22.27
2018-11-20T07:45:35.848Z,22.57
2018-11-20T07:48:36.228Z,21.57
2018-11-20T07:51:22.201Z,19.43
2018-11-20T07:54:16.443Z,18.50
2018-11-20T07:57:03.291Z,16.97
2018-11-20T07:59:57.504Z,16.50
2018-11-20T08:02:57.922Z,16.53
2018-11-20T08:06:05.241Z,16.10
2018-11-20T08:08:57.177Z,18.03
2018-11-20T08:11:44.219Z,16.40
2018-11-20T08:14:38.597Z,17.57
2018-11-20T08:17:14.623Z,16.37
2018-11-20T08:19:57.766Z,15.50
2018-11-20T08:22:55.232Z,19.47
2018-11-20T08:25:55.233Z,15.10
2018-11-20T08:28:49.217Z,18.03
2018-11-20T08:31:37.560Z,14.23
2018-11-20T08:34:34.728Z,15.73
2018-11-20T08:37:21.743Z,15.10
2018-11-20T08:40:08.816Z,16.60
2018-11-20T08:43:01.566Z,13.20
2018-11-20T08:45:57.613Z,13.23
2018-11-20T08:48:44.680Z,15.40
2018-11-20T08:51:35.670Z,13.20
2018-11-20T08:54:14.629Z,13.40
2018-11-20T08:57:05.684Z,15.27
2018-11-20T08:59:44.348Z,12.17
2018-11-20T09:02:35.712Z,15.67
2018-11-20T09:05:22.318Z,12.73
2018-11-20T09:08:10.732Z,14.33
2018-11-20T09:10:56.681Z,12.93
2018-11-20T09:14:00.234Z,13.67
2018-11-20T09:16:51.407Z,24.53
2018-11-20T09:19:42.778Z,13.80
2018-11-20T09:22:25.792Z,12.20
2018-11-20T09:25:31.961Z,13.23
2018-11-20T09:28:20.573Z,13.43
2018-11-20T09:31:08.984Z,12.23
2018-11-20T09:34:00.407Z,19.13
2018-11-20T09:36:57.472Z,13.73
2018-11-20T09:39:47.110Z,12.63
2018-11-20T09:42:38.554Z,13.40
2018-11-20T09:45:37.156Z,12.73
2018-11-20T09:48:26.586Z,11.57
2018-11-20T09:51:15.069Z,12.77
2018-11-20T09:54:02.687Z,10.97
2018-11-20T09:56:49.636Z,11.77
2018-11-20T09:59:50.174Z,12.00
2018-11-20T10:02:33.245Z,10.83
2018-11-20T10:05:19.516Z,9.53
2018-11-20T10:08:10.828Z,11.00
2018-11-20T10:10:54.102Z,10.63
2018-11-20T10:13:40.869Z,12.00
2018-11-20T10:16:47.275Z,11.53
2018-11-20T10:19:33.967Z,12.20
2018-11-20T10:22:28.010Z,13.57
2018-11-20T10:25:19.159Z,10.43
2018-11-20T10:28:05.918Z,11.37
2018-11-20T10:30:56.946Z,11.87
2018-11-20T10:34:00.184Z,12.43
2018-11-20T10:36:42.843Z,10.87
2018-11-20T10:39:37.316Z,13.17
2018-11-20T10:42:34.870Z,7.97
2018-11-20T10:45:19.836Z,9.93
2018-11-20T10:48:06.987Z,11.93
2018-11-20T10:50:53.760Z,10.50
2018-11-20T10:53:31.123Z,11.63
2018-11-20T10:56:18.145Z,10.53
2018-11-20T10:59:00.156Z,17.73
2018-11-20T11:01:47.146Z,10.50
2018-11-20T11:04:33.908Z,11.33
2018-11-20T11:07:20.949Z,10.73
2018-11-20T11:09:58.307Z,15.70
2018-11-20T11:12:49.606Z,14.37
2018-11-20T11:15:36.245Z,11.57
2018-11-20T11:18:24.672Z,11.73
2018-11-20T11:21:15.809Z,13.00
2018-11-20T11:24:10.032Z,13.40
2018-11-20T11:27:04.484Z,10.60
2018-11-20T11:29:55.493Z,10.87
2018-11-20T11:32:49.704Z,11.90
2018-11-20T11:35:46.947Z,11.67
2018-11-20T11:38:36.940Z,11.87
2018-11-20T11:41:23.674Z,10.87
2018-11-20T11:44:10.584Z,12.20
2018-11-20T11:46:57.435Z,10.00
2018-11-20T11:49:51.324Z,15.00
2018-11-20T11:52:38.142Z,11.10
2018-11-20T11:55:21.543Z,10.97
2018-11-20T11:58:07.651Z,10.33
2018-11-20T12:01:02.058Z,15.90
2018-11-20T12:03:42.479Z,18.77
2018-11-20T12:06:42.645Z,12.33
2018-11-20T12:09:29.233Z,32.40
2018-11-20T12:12:20.448Z,14.73
2018-11-20T12:15:10.106Z,21.57
2018-11-20T12:17:59.010Z,9.93
2018-11-20T12:20:47.388Z,28.10
2018-11-20T12:23:44.667Z,14.33
2018-11-20T12:26:35.689Z,12.33
2018-11-20T12:29:42.114Z,13.13
2018-11-20T12:32:39.473Z,12.53
2018-11-20T12:35:33.199Z,10.63
2018-11-20T12:38:23.304Z,10.93
2018-11-20T12:41:10.241Z,10.77
2018-11-20T12:44:06.012Z,12.03
2018-11-20T12:46:51.193Z,11.97
2018-11-20T12:49:42.491Z,11.80
2018-11-20T12:52:28.855Z,12.40
2018-11-20T12:55:15.581Z,14.63
2018-11-20T12:58:07.442Z,8.93
2018-11-20T13:01:01.879Z,11.80
2018-11-20T13:03:53.025Z,9.87
2018-11-20T13:06:37.551Z,10.87
2018-11-20T13:09:27.646Z,12.87
2018-11-20T13:12:18.641Z,10.80
2018-11-20T13:15:09.853Z,11.97
2018-11-20T13:17:54.702Z,11.13
2018-11-20T13:20:41.463Z,11.57
2018-11-20T13:23:29.404Z,12.73
2018-11-20T13:26:19.606Z,11.17
2018-11-20T13:29:10.963Z,13.77
2018-11-20T13:31:57.931Z,11.57
2018-11-20T13:34:44.925Z,10.93
2018-11-20T13:37:33.538Z,18.93
2018-11-20T13:40:18.537Z,40.40
2018-11-20T13:43:22.540Z,21.10
2018-11-20T13:46:19.999Z,14.03
2018-11-20T13:49:20.420Z,11.83
2018-11-20T13:52:06.589Z,18.50
2018-11-20T13:54:53.470Z,17.60
2018-11-20T13:57:46.301Z,17.10
2018-11-20T14:00:33.295Z,12.70
2018-11-20T14:03:20.329Z,19.10
2018-11-20T14:06:18.540Z,14.80
2018-11-20T14:09:03.612Z,13.43
2018-11-20T14:11:39.360Z,13.90
2018-11-20T14:14:27.732Z,12.43
2018-11-20T14:17:14.626Z,13.63
2018-11-20T14:19:54.251Z,15.00
2018-11-20T14:22:51.448Z,13.37
2018-11-20T14:25:44.313Z,11.73
2018-11-20T14:28:44.538Z,10.90
2018-11-20T14:32:13.538Z,13.87
2018-11-20T14:35:04.009Z,13.33
2018-11-20T14:38:00.748Z,12.83
2018-11-20T14:40:57.450Z,18.77
2018-11-20T14:43:43.708Z,16.60
2018-11-20T14:46:29.793Z,13.83
2018-11-20T14:49:16.040Z,13.53
2018-11-20T14:52:02.000Z,14.63
2018-11-20T14:54:48.848Z,19.47
2018-11-20T14:57:42.185Z,19.33
2018-11-20T15:00:37.198Z,17.97
2018-11-20T15:03:42.747Z,15.90
2018-11-20T15:06:45.257Z,17.73
2018-11-20T15:09:35.837Z,16.10
2018-11-20T15:12:21.919Z,15.70
2018-11-20T15:15:07.934Z,16.60
2018-11-20T15:17:53.893Z,13.63
2018-11-20T15:20:39.832Z,15.83
2018-11-20T15:23:22.806Z,15.87
2018-11-20T15:26:10.464Z,23.10
2018-11-20T15:28:56.746Z,15.00
2018-11-20T15:31:42.644Z,21.53
2018-11-20T15:34:39.155Z,16.10
2018-11-20T15:37:35.673Z,13.53
2018-11-20T15:40:30.056Z,15.80
2018-11-20T15:43:17.637Z,15.87
2018-11-20T15:46:03.984Z,15.53
2018-11-20T15:48:50.901Z,15.33
2018-11-20T15:51:28.345Z,18.00
2018-11-20T15:54:34.090Z,21.43
2018-11-20T15:57:33.670Z,19.87
2018-11-20T16:00:19.706Z,16.50
2018-11-20T16:03:25.698Z,15.57
2018-11-20T16:06:11.767Z,15.40
2018-11-20T16:09:05.070Z,20.50
2018-11-20T16:11:58.331Z,18.03
2018-11-20T16:14:46.051Z,21.50
2018-11-20T16:17:33.700Z,14.83
2018-11-20T16:20:36.514Z,15.90
2018-11-20T16:23:22.832Z,14.10
2018-11-20T16:26:16.143Z,27.00
2018-11-20T16:29:06.761Z,56.77
2018-11-20T16:32:06.336Z,55.33
2018-11-20T16:35:02.648Z,22.30
2018-11-20T16:37:55.981Z,21.97
2018-11-20T16:40:46.458Z,21.17
2018-11-20T16:43:49.011Z,23.47
2018-11-20T16:46:45.614Z,22.67
2018-11-20T16:49:29.467Z,22.40
2018-11-20T16:52:15.662Z,22.70
2018-11-20T16:55:05.916Z,20.37
2018-11-20T16:57:56.208Z,20.03
2018-11-20T17:00:45.322Z,21.57
2018-11-20T17:03:40.612Z,24.33
2018-11-20T17:06:27.584Z,22.30
2018-11-20T17:09:14.992Z,22.43
2018-11-20T17:12:08.287Z,17.93
2018-11-20T17:14:55.934Z,18.67
2018-11-20T17:17:52.228Z,16.63
2018-11-20T17:20:38.137Z,15.47
2018-11-20T17:23:31.791Z,22.53
2018-11-20T17:26:17.974Z,16.53
2018-11-20T17:29:04.297Z,21.90
2018-11-20T17:31:50.278Z,22.40
2018-11-20T17:34:36.198Z,20.23
2018-11-20T17:37:12.347Z,22.10
2018-11-20T17:39:58.153Z,20.33
2018-11-20T17:42:44.263Z,20.10
2018-11-20T17:45:34.019Z,21.20
2018-11-20T17:48:21.568Z,25.47
2018-11-20T17:51:21.309Z,22.60
2018-11-20T17:54:11.853Z,25.77
2018-11-20T17:56:57.849Z,24.80
2018-11-20T17:59:54.294Z,23.63
2018-11-20T18:02:40.295Z,23.63
2018-11-20T18:05:33.868Z,25.43
2018-11-20T18:08:19.727Z,24.93
2018-11-20T18:11:09.959Z,21.63
2018-11-20T18:14:01.798Z,24.17
2018-11-20T18:17:07.360Z,29.47
2018-11-20T18:20:01.019Z,21.03
2018-11-20T18:22:54.374Z,21.97
2018-11-20T18:25:50.623Z,27.43
2018-11-20T18:28:36.624Z,21.70
2018-11-20T18:31:15.656Z,23.77
2018-11-20T18:34:15.493Z,23.67
2018-11-20T18:37:09.109Z,20.53
2018-11-20T18:39:56.701Z,19.67
2018-11-20T18:42:40.876Z,23.80
2018-11-20T18:45:27.184Z,21.90
2018-11-20T18:48:13.416Z,23.23
2018-11-20T18:51:15.996Z,21.13
2018-11-20T18:54:02.418Z,24.63
2018-11-20T18:56:50.181Z,29.47
2018-11-20T18:59:36.236Z,23.03
2018-11-20T19:02:24.709Z,24.73
2018-11-20T19:05:11.709Z,27.77
2018-11-20T19:08:14.135Z,26.13
2018-11-20T19:11:00.651Z,32.70
2018-11-20T19:13:56.004Z,28.23
2018-11-20T19:16:42.006Z,32.70
2018-11-20T19:19:20.133Z,32.00
2018-11-20T19:22:06.624Z,24.47
2018-11-20T19:24:57.060Z,22.47
2018-11-20T19:27:57.438Z,20.90
2018-11-20T19:30:43.565Z,17.83
2018-11-20T19:33:34.023Z,21.83
2018-11-20T19:36:30.642Z,16.03
2018-11-20T19:39:16.611Z,17.37
2018-11-20T19:42:15.383Z,14.33
2018-11-20T19:45:18.275Z,15.87
2018-11-20T19:48:12.731Z,16.17
2018-11-20T19:51:00.805Z,15.80
2018-11-20T19:53:57.462Z,16.87
2018-11-20T19:56:43.648Z,15.87
2018-11-20T19:59:40.127Z,17.17
2018-11-20T20:02:36.582Z,14.83
2018-11-20T20:05:22.243Z,15.63
2018-11-20T20:08:12.516Z,16.23
2018-11-20T20:10:54.565Z,16.27
2018-11-20T20:13:48.123Z,17.47
2018-11-20T20:16:41.468Z,19.17
2018-11-20T20:19:27.737Z,22.73
2018-11-20T20:22:18.207Z,17.20
2018-11-20T20:25:04.061Z,19.47
2018-11-20T20:28:06.398Z,14.87
2018-11-20T20:30:54.090Z,13.27
2018-11-20T20:33:33.882Z,17.73
2018-11-20T20:36:29.884Z,20.17
2018-11-20T20:39:17.633Z,14.87
2018-11-20T20:42:14.141Z,16.40
2018-11-20T20:45:00.422Z,18.80
2018-11-20T20:47:55.760Z,17.60
2018-11-20T20:50:38.054Z,14.63
2018-11-20T20:53:23.752Z,18.57
2018-11-20T20:56:09.654Z,13.47
2018-11-20T20:58:55.611Z,16.27
2018-11-20T21:01:51.875Z,13.53
2018-11-20T21:04:27.205Z,16.57
2018-11-20T21:07:11.810Z,17.07
2018-11-20T21:10:14.476Z,93.63
2018-11-20T21:12:57.251Z,26.17
2018-11-20T21:15:47.721Z,17.43
2018-11-20T21:18:44.264Z,15.60
2018-11-20T21:21:34.620Z,16.77
2018-11-20T21:24:27.705Z,14.87
2018-11-20T21:27:08.189Z,13.37
2018-11-20T21:30:04.856Z,13.37
2018-11-20T21:32:51.069Z,14.70
2018-11-20T21:35:50.518Z,19.03
2018-11-20T21:38:46.788Z,12.33
2018-11-20T21:41:35.789Z,12.03
2018-11-20T21:44:21.706Z,13.23
2018-11-20T21:47:02.022Z,13.57
2018-11-20T21:49:55.515Z,15.50
2018-11-20T21:52:43.204Z,14.13
2018-11-20T21:55:36.585Z,12.53
2018-11-20T21:58:22.981Z,13.13
2018-11-20T22:01:11.440Z,13.20
2018-11-20T22:03:59.439Z,14.23
2018-11-20T22:06:45.361Z,12.53
2018-11-20T22:09:32.965Z,11.93
2018-11-20T22:12:26.517Z,13.43
2018-11-20T22:15:12.260Z,13.17
2018-11-20T22:18:03.638Z,16.43
2018-11-20T22:20:49.848Z,11.97
2018-11-20T22:23:43.518Z,14.27
2018-11-20T22:26:35.693Z,12.57
2018-11-20T22:29:16.896Z,13.57
2018-11-20T22:32:02.786Z,13.13
2018-11-20T22:34:49.300Z,13.83
2018-11-20T22:37:39.822Z,13.67
2018-11-20T22:40:30.650Z,12.60
2018-11-20T22:43:14.585Z,12.43
2018-11-20T22:46:03.038Z,12.30
2018-11-20T22:48:49.655Z,13.37
2018-11-20T22:51:37.195Z,12.97
2018-11-20T22:54:16.393Z,14.47
2018-11-20T22:56:54.212Z,15.50
2018-11-20T22:59:30.129Z,24.47
2018-11-20T23:02:22.163Z,16.50
2018-11-20T23:05:26.469Z,16.23
2018-11-20T23:07:56.302Z,13.50
2018-11-20T23:10:26.038Z,19.60
2018-11-20T23:12:54.692Z,16.10
2018-11-20T23:15:23.385Z,16.13
2018-11-20T23:17:51.842Z,14.20
2018-11-20T23:20:20.318Z,15.83
2018-11-20T23:22:49.325Z,12.97
2018-11-20T23:25:17.808Z,14.20
2018-11-20T23:27:46.368Z,13.20
2018-11-20T23:30:16.477Z,14.37
2018-11-20T23:32:44.959Z,13.43
2018-11-20T23:35:14.009Z,15.10
2018-11-20T23:37:43.149Z,13.50
2018-11-20T23:40:12.907Z,13.80
2018-11-20T23:42:41.769Z,13.43
2018-11-20T23:45:12.885Z,15.17
2018-11-20T23:47:41.553Z,17.77
2018-11-20T23:50:12.036Z,13.97
2018-11-20T23:52:40.667Z,14.97
2018-11-20T23:55:14.909Z,15.47
2018-11-20T23:57:43.370Z,13.97
